createdAt,value
2023-02-20T00:00:34.178Z,16.92
2023-02-20T00:05:37.412Z,16.23
2023-02-20T00:10:39.240Z,16.27
2023-02-20T00:15:41.278Z,17.25
2023-02-20T00:20:44.625Z,16.45
2023-02-20T00:25:46.377Z,17.58
2023-02-20T00:30:48.272Z,18.25
2023-02-20T00:35:51.440Z,18.52
2023-02-20T00:40:53.237Z,17.62
2023-02-20T00:45:55.079Z,18.77
2023-02-20T00:50:58.214Z,18.02
2023-02-20T00:55:59.970Z,16.67
2023-02-20T01:18:18.360Z,16.87
2023-02-20T01:23:20.276Z,16.48
2023-02-20T01:28:22.472Z,18.80
2023-02-20T01:33:25.975Z,15.88
2023-02-20T01:38:28.031Z,17.45
2023-02-20T01:43:29.891Z,17.10
2023-02-20T01:48:33.215Z,17.50
2023-02-20T01:53:35.238Z,18.30
2023-02-20T01:58:41.047Z,17.12
2023-02-20T02:21:52.150Z,17.53
2023-02-20T02:27:25.631Z,17.05
2023-02-20T02:32:56.107Z,16.45
2023-02-20T02:38:05.578Z,17.58
2023-02-20T02:43:12.991Z,18.90
2023-02-20T02:48:19.594Z,18.70
2023-02-20T02:53:23.019Z,18.17
2023-02-20T02:58:25.049Z,18.27
2023-02-20T03:03:29.863Z,17.83
2023-02-20T03:08:39.627Z,16.52
2023-02-20T03:13:44.090Z,17.08
2023-02-20T03:18:47.964Z,16.80
2023-02-20T03:23:57.267Z,18.00
2023-02-20T03:29:05.732Z,17.00
2023-02-20T03:34:13.114Z,17.80
2023-02-20T03:39:21.721Z,16.73
2023-02-20T03:44:24.599Z,16.75
2023-02-20T03:49:29.858Z,17.42
2023-02-20T03:54:33.825Z,16.50
2023-02-20T03:59:40.508Z,17.23
2023-02-20T04:04:46.742Z,17.50
2023-02-20T04:09:50.181Z,18.25
2023-02-20T04:14:54.035Z,16.80
2023-02-20T04:19:55.994Z,17.00
2023-02-20T04:25:02.676Z,17.00
2023-02-20T04:30:05.621Z,17.37
2023-02-20T04:35:16.599Z,17.00
2023-02-20T04:40:22.498Z,16.42
2023-02-20T04:45:24.454Z,16.70
2023-02-20T04:50:29.965Z,16.50
2023-02-20T04:55:33.180Z,16.02
2023-02-20T05:00:34.931Z,17.83
2023-02-20T05:05:36.732Z,16.27
2023-02-20T05:10:40.001Z,17.50
2023-02-20T05:15:41.706Z,17.92
2023-02-20T05:20:43.588Z,16.23
2023-02-20T05:25:46.915Z,17.23
2023-02-20T05:30:48.838Z,18.15
2023-02-20T05:35:50.604Z,17.33
2023-02-20T05:40:53.904Z,17.83
2023-02-20T05:45:55.612Z,20.90
2023-02-20T05:50:57.331Z,17.55
2023-02-20T05:56:00.561Z,18.33
2023-02-20T06:01:02.312Z,18.50
2023-02-20T06:06:04.479Z,17.95
2023-02-20T06:11:09.072Z,17.83
2023-02-20T06:16:11.369Z,18.85
2023-02-20T06:21:13.279Z,17.10
2023-02-20T06:26:17.424Z,18.12
2023-02-20T06:31:22.196Z,18.73
2023-02-20T06:36:27.649Z,19.33
2023-02-20T06:41:30.790Z,17.95
2023-02-20T06:46:32.758Z,18.50
2023-02-20T06:51:34.799Z,19.02
2023-02-20T06:56:37.881Z,19.00
2023-02-20T07:01:41.965Z,19.90
2023-02-20T07:06:43.785Z,18.00
2023-02-20T07:11:47.260Z,20.48
2023-02-20T07:16:48.960Z,20.30
2023-02-20T07:21:50.655Z,19.65
2023-02-20T07:31:54.724Z,18.83
2023-02-20T07:36:56.492Z,20.48
2023-02-20T07:41:59.678Z,18.98
2023-02-20T07:47:01.478Z,19.30
2023-02-20T07:52:03.400Z,18.60
2023-02-20T07:57:06.608Z,18.30
2023-02-20T08:02:08.351Z,18.00
2023-02-20T08:07:10.095Z,18.95
2023-02-20T08:12:14.878Z,18.52
2023-02-20T08:17:17.488Z,19.40
2023-02-20T08:22:19.200Z,19.65
2023-02-20T08:27:22.435Z,19.15
2023-02-20T08:32:24.208Z,19.45
2023-02-20T08:37:26.045Z,19.00
2023-02-20T08:42:29.183Z,17.73
2023-02-20T08:47:31.055Z,18.20
2023-02-20T08:52:32.833Z,17.45
2023-02-20T08:57:35.941Z,18.05
2023-02-20T09:02:37.738Z,17.95
2023-02-20T09:07:39.487Z,17.52
2023-02-20T09:12:42.550Z,17.65
2023-02-20T09:17:44.889Z,16.12
2023-02-20T09:22:46.744Z,17.48
2023-02-20T09:27:49.822Z,18.20
2023-02-20T09:32:51.738Z,16.77
2023-02-20T09:37:54.559Z,16.50
2023-02-20T09:43:17.780Z,17.40
2023-02-20T09:48:31.069Z,18.37
2023-02-20T09:53:39.019Z,18.40
2023-02-20T09:58:46.215Z,17.95
2023-02-20T10:03:55.437Z,19.83
2023-02-20T10:08:57.781Z,17.50
2023-02-20T10:14:16.736Z,16.98
2023-02-20T10:19:24.002Z,17.55
2023-02-20T10:24:44.803Z,17.40
2023-02-20T10:29:48.198Z,17.50
2023-02-20T10:34:56.502Z,19.45
2023-02-20T10:40:04.762Z,17.95
2023-02-20T10:45:13.517Z,18.77
2023-02-20T10:50:19.047Z,19.10
2023-02-20T10:55:27.793Z,18.30
2023-02-20T11:00:36.729Z,17.77
2023-02-20T11:05:44.411Z,16.65
2023-02-20T11:10:46.544Z,18.37
2023-02-20T11:15:52.538Z,17.17
2023-02-20T11:20:55.066Z,16.98
2023-02-20T11:26:12.836Z,15.93
2023-02-20T11:31:16.271Z,16.27
2023-02-20T11:36:22.202Z,15.00
2023-02-20T11:41:28.336Z,16.05
2023-02-20T11:46:31.568Z,17.62
2023-02-20T11:51:36.632Z,15.85
2023-02-20T11:56:38.533Z,16.40
2023-02-20T12:01:43.310Z,16.52
2023-02-20T12:06:47.008Z,16.52
2023-02-20T12:11:51.411Z,16.48
2023-02-20T12:17:11.743Z,16.67
2023-02-20T12:22:22.266Z,15.18
2023-02-20T12:27:39.257Z,15.95
2023-02-20T12:32:59.315Z,16.08
2023-02-20T12:38:21.898Z,15.63
2023-02-20T12:43:31.878Z,16.60
2023-02-20T12:48:44.531Z,15.10
2023-02-20T12:54:11.079Z,15.98
2023-02-20T12:59:24.324Z,15.25
2023-02-20T13:04:31.951Z,15.05
2023-02-20T13:09:36.784Z,14.60
2023-02-20T13:14:55.411Z,14.87
2023-02-20T13:20:06.535Z,15.25
2023-02-20T13:25:38.319Z,15.07
2023-02-20T13:30:41.120Z,14.50
2023-02-20T13:35:52.264Z,14.27
2023-02-20T13:41:04.945Z,14.82
2023-02-20T13:46:16.539Z,14.20
2023-02-20T13:51:37.662Z,13.70
2023-02-20T13:56:53.229Z,13.23
2023-02-20T14:02:14.489Z,13.93
2023-02-20T14:07:31.707Z,13.52
2023-02-20T14:12:43.859Z,13.62
2023-02-20T14:18:01.393Z,13.98
2023-02-20T14:23:27.956Z,14.45
2023-02-20T14:28:31.080Z,13.62
2023-02-20T14:33:44.200Z,13.23
2023-02-20T14:39:29.038Z,13.62
2023-02-20T14:44:49.232Z,13.90
2023-02-20T14:55:26.028Z,13.13
2023-02-20T15:00:36.606Z,12.68
2023-02-20T15:05:41.901Z,13.15
2023-02-20T15:10:46.253Z,11.93
2023-02-20T15:15:52.290Z,13.13
2023-02-20T15:20:54.115Z,13.23
2023-02-20T15:25:56.582Z,12.77
2023-02-20T15:31:13.462Z,12.85
2023-02-20T15:36:19.350Z,12.07
2023-02-20T15:41:21.283Z,12.70
2023-02-20T15:46:24.508Z,12.50
2023-02-20T15:51:26.245Z,12.70
2023-02-20T15:56:31.874Z,13.23
2023-02-20T16:01:35.344Z,12.77
2023-02-20T16:06:37.279Z,12.95
2023-02-20T16:11:42.132Z,12.70
2023-02-20T16:16:46.941Z,12.40
2023-02-20T16:21:58.551Z,12.93
2023-02-20T16:27:00.884Z,13.30
2023-02-20T16:32:24.596Z,12.80
2023-02-20T16:37:26.609Z,12.82
2023-02-20T16:42:33.618Z,14.80
2023-02-20T16:47:36.824Z,15.93
2023-02-20T16:52:39.930Z,14.18
2023-02-20T16:57:44.991Z,13.70
2023-02-20T17:02:48.220Z,13.07
2023-02-20T17:07:50.119Z,13.02
2023-02-20T17:12:52.384Z,13.90
2023-02-20T17:17:55.740Z,14.68
2023-02-20T17:23:04.571Z,14.40
2023-02-20T17:28:06.937Z,14.93
2023-02-20T17:33:10.098Z,14.73
2023-02-20T17:38:12.151Z,14.02
2023-02-20T17:43:13.897Z,14.98
2023-02-20T17:48:17.058Z,14.32
2023-02-20T17:53:18.960Z,15.20
2023-02-20T17:58:20.875Z,14.25
2023-02-20T18:03:24.104Z,14.50
2023-02-20T18:08:25.866Z,16.30
2023-02-20T18:13:27.753Z,14.90
2023-02-20T18:18:30.936Z,14.07
2023-02-20T18:23:32.703Z,13.48
2023-02-20T18:28:34.435Z,15.45
2023-02-20T18:33:38.065Z,16.15
2023-02-20T18:38:39.907Z,15.90
2023-02-20T18:43:44.400Z,14.70
2023-02-20T18:54:15.341Z,16.48
2023-02-20T18:59:17.772Z,14.90
2023-02-20T19:04:21.542Z,14.25
2023-02-20T19:20:58.723Z,15.98
2023-02-20T19:26:00.583Z,15.27
2023-02-20T19:31:02.330Z,15.95
2023-02-20T19:36:09.875Z,15.00
2023-02-20T19:41:13.730Z,15.65
2023-02-20T19:46:25.008Z,15.38
2023-02-20T19:51:29.445Z,14.98
2023-02-20T19:56:31.250Z,14.93
2023-02-20T20:24:13.840Z,15.47
2023-02-20T20:29:15.591Z,15.57
2023-02-20T20:34:17.300Z,16.08
2023-02-20T20:39:20.449Z,14.48
2023-02-20T20:44:22.363Z,15.48
2023-02-20T20:49:24.149Z,14.57
2023-02-20T20:54:27.266Z,15.23
2023-02-20T20:59:29.095Z,15.93
2023-02-20T21:04:30.902Z,14.80
2023-02-20T21:09:34.093Z,15.30
2023-02-20T21:14:40.002Z,16.00
2023-02-20T21:19:42.064Z,14.73
2023-02-20T21:24:45.234Z,15.10
2023-02-20T21:29:46.997Z,14.30
2023-02-20T21:34:48.896Z,15.93
2023-02-20T21:39:54.166Z,17.77
2023-02-20T21:44:56.150Z,16.62
2023-02-20T21:49:57.977Z,16.42
2023-02-20T21:55:01.082Z,16.17
2023-02-20T22:00:04.200Z,16.10
2023-02-20T22:05:07.148Z,16.37
2023-02-20T22:10:13.872Z,15.98
2023-02-20T22:15:15.839Z,15.55
2023-02-20T22:20:17.854Z,16.70
2023-02-20T22:25:21.052Z,17.00
2023-02-20T22:30:23.029Z,15.98
2023-02-20T22:35:24.911Z,16.15
2023-02-20T22:40:46.252Z,16.08
2023-02-20T22:45:48.334Z,16.40
2023-02-20T22:50:50.065Z,18.30
2023-02-20T22:55:53.150Z,15.25
2023-02-20T23:00:54.952Z,16.20
2023-02-20T23:06:00.494Z,18.25
2023-02-20T23:11:08.158Z,17.75
2023-02-20T23:16:09.885Z,15.90
2023-02-20T23:21:11.914Z,16.95
2023-02-20T23:26:15.077Z,16.27
2023-02-20T23:31:17.533Z,16.33
2023-02-20T23:36:19.328Z,17.10
2023-02-20T23:41:22.485Z,17.12
2023-02-20T23:46:24.235Z,16.50
2023-02-20T23:51:26.032Z,17.12
2023-02-20T23:56:29.282Z,17.42
